• Join FlightAware (Why Join?)
  • Login
  • US Flag 
02:22PM EDT


 

Airport Tracker/Info


-or-


 

Live Flight TrackerFlight Track Log ✈ SIL4069 ✈ 09-May-2013 ✈ KFKL - KCLE

Flight Track Log - Related Links

Times and Time Zones

All times are in EDT time to prevent confusion due to time zone crossing. See the SIL4069 flight status page for this flight to view local times or setup timezone preferences in your user account.

Time Position Orientation Groundspeed Altitude Reporting Facility
EDT Latitude Longitude Course Direction KTS MPH feet Rate Location/Type
05:44PM 41.3831 -79.9714 287° West 186 214 5,200  Level Cleveland Center
05:45PM 41.3981 -80.0350 287° West 208 239 6,600 1,440 Climbing Cleveland Center
05:46PM 41.4086 -80.1181 280° West 216 249 8,100 1,260 Climbing Cleveland Center
05:47PM 41.4153 -80.2011 276° West 226 260 9,200 900 Climbing Cleveland Center
05:48PM 41.4239 -80.2869 278° West 231 266 9,900 360 Climbing Cleveland Center
05:49PM 41.4367 -80.3808 280° West 258 297 10,000  Climbing Cleveland Center
05:50PM 41.4492 -80.4750 280° West 258 297 10,000 -60 Level Cleveland Center
05:51PM 41.4575 -80.5719 277° West 258 297 9,900  Descending Cleveland Center
05:52PM 41.4658 -80.6689 277° West 258 297 10,000 60 Climbing Cleveland Center
05:53PM 41.4761 -80.7606 279° West 258 297 10,100  Climbing Cleveland Center
05:54PM 41.4844 -80.8547 277° West 258 297 10,000 -360 Descending Cleveland Center
05:55PM 41.4944 -80.9519 278° West 258 297 9,400 -540 Descending Cleveland Center
05:55PM 41.5028 -81.0100 281° West 259 298 9,200 -300 Descending Cleveland Center
05:56PM 41.5047 -81.0350 276° West 258 297 9,100 -120 Descending Cleveland Center
05:56PM 41.5106 -81.0961 277° West 258 297 9,100  Level Cleveland Center
05:57PM 41.5147 -81.1294 279° West 258 297 9,100  Level Cleveland Center
05:57PM 41.5164 -81.1906 272° West 255 293 9,100  Level Cleveland Center
05:58PM 41.5119 -81.2236 260° West 253 291 9,100  Level Cleveland Center
05:58PM 41.4992 -81.2761 252° West 255 293 9,100  Level Cleveland Center
05:59PM 41.4969 -81.3178 266° West 258 297 9,100  Level Cleveland Center
05:59PM 41.4881 -81.3786 259° West 256 295 9,100 -120 Level Cleveland Center
06:00PM 41.4817 -81.4092 254° West 258 297 9,000 -120 Descending Cleveland Center
06:00PM 41.4750 -81.4839 263° West 252 290 9,000 -120 Level Cleveland Center
06:01PM 41.4706 -81.5003 250° West 258 297 8,900  Descending Cleveland Center
06:01PM 41.4575 -81.5667 255° West 256 295 9,000  Climbing Cleveland Center
06:02PM 41.4511 -81.5917 251° West 258 297 8,900  Descending Cleveland Center
06:02PM 41.4233 -81.6547 240° Southwest 262 302 9,000  Climbing Cleveland Center
06:03PM 41.4169 -81.6714 243° Southwest 258 297 8,900 180 Descending Cleveland Center
06:03PM 41.3808 -81.7344 233° Southwest 253 291 9,200 60 Climbing Cleveland Center
06:04PM 41.3744 -81.7481 238° Southwest 258 297 9,000 -1,620 Descending Cleveland Center
06:04PM 41.3447 -81.8167 240° Southwest 248 285 7,600 -2,040 Descending Cleveland Center
06:05PM 41.3383 -81.8247 223° Southwest 258 297 7,000 -2,700 Descending Cleveland Center
06:05PM 41.3000 -81.8822 228° Southwest 242 278 4,900 -1,680 Descending Cleveland Center
06:06PM 41.2533 -81.9503 228° Southwest 230 265 4,100 -540 Descending Cleveland Center
06:07PM 41.2589 -82.0111 277° West 170 196 3,900 -240 Descending Cleveland Center
06:08PM 41.3047 -82.0178 354° North 187 215 3,700 -540 Descending Cleveland Center
06:09PM 41.3344 -81.9742 48° Northeast 165 190 2,900 -900 Descending Cleveland Center